sensor_id;sensor_type;location;lat;lon;timestamp;pressure;altitude;pressure_sealevel;temperature;humidity
41264;BME280;26998;48.714;9.414;2023-09-18T00:00:54;99033.88;;;18.22;100.00
41264;BME280;26998;48.714;9.414;2023-09-18T00:03:21;99054.22;;;18.24;100.00
41264;BME280;26998;48.714;9.414;2023-09-18T00:05:49;99055.22;;;18.07;100.00
41264;BME280;26998;48.714;9.414;2023-09-18T00:08:16;99081.53;;;17.94;100.00
41264;BME280;26998;48.714;9.414;2023-09-18T00:10:52;99089.50;;;18.01;100.00
41264;BME280;26998;48.714;9.414;2023-09-18T00:13:19;99090.66;;;18.05;100.00
41264;BME280;26998;48.714;9.414;2023-09-18T00:15:46;99082.06;;;18.08;100.00
41264;BME280;26998;48.714;9.414;2023-09-18T00:18:16;99081.94;;;18.03;100.00
41264;BME280;26998;48.714;9.414;2023-09-18T00:20:43;99072.44;;;18.00;100.00
41264;BME280;26998;48.714;9.414;2023-09-18T00:23:09;99070.47;;;17.96;100.00
41264;BME280;26998;48.714;9.414;2023-09-18T00:25:36;99073.34;;;18.06;100.00
41264;BME280;26998;48.714;9.414;2023-09-18T00:28:03;99068.75;;;18.07;100.00
41264;BME280;26998;48.714;9.414;2023-09-18T00:30:29;99055.97;;;18.02;100.00
41264;BME280;26998;48.714;9.414;2023-09-18T00:32:56;99043.53;;;18.01;100.00
41264;BME280;26998;48.714;9.414;2023-09-18T00:35:22;99041.53;;;17.96;100.00
41264;BME280;26998;48.714;9.414;2023-09-18T00:37:49;99065.69;;;17.86;100.00
41264;BME280;26998;48.714;9.414;2023-09-18T00:40:15;99077.31;;;17.87;100.00
41264;BME280;26998;48.714;9.414;2023-09-18T00:42:42;99080.81;;;17.87;100.00
41264;BME280;26998;48.714;9.414;2023-09-18T00:45:08;99077.09;;;17.88;100.00
41264;BME280;26998;48.714;9.414;2023-09-18T00:47:35;99069.69;;;17.84;100.00
41264;BME280;26998;48.714;9.414;2023-09-18T00:50:03;99077.44;;;17.80;100.00
41264;BME280;26998;48.714;9.414;2023-09-18T00:52:31;99078.59;;;17.84;100.00
41264;BME280;26998;48.714;9.414;2023-09-18T00:54:58;99085.41;;;17.75;100.00
41264;BME280;26998;48.714;9.414;2023-09-18T00:57:25;99108.81;;;17.69;100.00
41264;BME280;26998;48.714;9.414;2023-09-18T00:59:52;99142.56;;;17.55;100.00
41264;BME280;26998;48.714;9.414;2023-09-18T01:02:18;99157.72;;;17.56;100.00
41264;BME280;26998;48.714;9.414;2023-09-18T01:04:45;99191.34;;;17.48;100.00
41264;BME280;26998;48.714;9.414;2023-09-18T01:07:12;99203.44;;;17.58;100.00
41264;BME280;26998;48.714;9.414;2023-09-18T01:09:38;99173.13;;;17.67;100.00
41264;BME280;26998;48.714;9.414;2023-09-18T01:14:57;99137.84;;;17.74;100.00
41264;BME280;26998;48.714;9.414;2023-09-18T01:17:28;99150.91;;;17.65;100.00
41264;BME280;26998;48.714;9.414;2023-09-18T01:19:55;99142.78;;;17.65;100.00
41264;BME280;26998;48.714;9.414;2023-09-18T01:22:22;99162.19;;;17.62;100.00
41264;BME280;26998;48.714;9.414;2023-09-18T01:24:48;99167.94;;;17.66;100.00
41264;BME280;26998;48.714;9.414;2023-09-18T01:27:16;99167.94;;;17.66;100.00
41264;BME280;26998;48.714;9.414;2023-09-18T01:29:44;99169.72;;;17.60;100.00
41264;BME280;26998;48.714;9.414;2023-09-18T01:32:11;99186.75;;;17.61;100.00
41264;BME280;26998;48.714;9.414;2023-09-18T01:34:41;99186.16;;;17.70;100.00
41264;BME280;26998;48.714;9.414;2023-09-18T01:37:12;99179.22;;;17.74;100.00
41264;BME280;26998;48.714;9.414;2023-09-18T01:39:45;99170.31;;;17.86;100.00
41264;BME280;26998;48.714;9.414;2023-09-18T01:42:14;99136.66;;;17.93;100.00
41264;BME280;26998;48.714;9.414;2023-09-18T01:44:41;99132.66;;;17.96;100.00
41264;BME280;26998;48.714;9.414;2023-09-18T01:47:13;99122.56;;;17.91;100.00
41264;BME280;26998;48.714;9.414;2023-09-18T01:49:40;99147.59;;;17.87;100.00
41264;BME280;26998;48.714;9.414;2023-09-18T01:52:08;99140.91;;;17.89;100.00
41264;BME280;26998;48.714;9.414;2023-09-18T01:54:35;99133.25;;;17.98;100.00
41264;BME280;26998;48.714;9.414;2023-09-18T01:57:02;99140.63;;;18.03;100.00
41264;BME280;26998;48.714;9.414;2023-09-18T01:59:31;99169.06;;;18.17;100.00
41264;BME280;26998;48.714;9.414;2023-09-18T02:01:59;99219.72;;;18.21;100.00
41264;BME280;26998;48.714;9.414;2023-09-18T02:04:26;99167.63;;;18.26;100.00
41264;BME280;26998;48.714;9.414;2023-09-18T02:07:13;99141.97;;;18.29;100.00
41264;BME280;26998;48.714;9.414;2023-09-18T02:09:39;99092.03;;;18.36;100.00
41264;BME280;26998;48.714;9.414;2023-09-18T02:12:06;99099.53;;;18.46;100.00
41264;BME280;26998;48.714;9.414;2023-09-18T02:14:33;99239.47;;;18.34;100.00
41264;BME280;26998;48.714;9.414;2023-09-18T02:16:59;99324.88;;;18.30;100.00
41264;BME280;26998;48.714;9.414;2023-09-18T02:19:26;99380.06;;;18.17;100.00
41264;BME280;26998;48.714;9.414;2023-09-18T02:21:56;99433.22;;;18.23;100.00
41264;BME280;26998;48.714;9.414;2023-09-18T02:24:22;99486.25;;;18.12;100.00
41264;BME280;26998;48.714;9.414;2023-09-18T02:26:49;99516.28;;;18.22;100.00
41264;BME280;26998;48.714;9.414;2023-09-18T02:29:15;99503.69;;;18.16;100.00
41264;BME280;26998;48.714;9.414;2023-09-18T02:31:41;99515.19;;;18.12;100.00
41264;BME280;26998;48.714;9.414;2023-09-18T02:34:08;99495.63;;;17.98;100.00
41264;BME280;26998;48.714;9.414;2023-09-18T02:36:35;99518.41;;;17.90;100.00
41264;BME280;26998;48.714;9.414;2023-09-18T02:39:01;99536.97;;;17.87;100.00
41264;BME280;26998;48.714;9.414;2023-09-18T02:41:28;99544.47;;;17.85;100.00
41264;BME280;26998;48.714;9.414;2023-09-18T02:43:54;99573.28;;;17.72;100.00
41264;BME280;26998;48.714;9.414;2023-09-18T02:46:21;99562.44;;;17.79;100.00
41264;BME280;26998;48.714;9.414;2023-09-18T02:48:50;99593.22;;;17.78;100.00
41264;BME280;26998;48.714;9.414;2023-09-18T02:51:17;99607.34;;;17.62;100.00
41264;BME280;26998;48.714;9.414;2023-09-18T02:53:43;99510.72;;;17.57;100.00
41264;BME280;26998;48.714;9.414;2023-09-18T02:56:10;98407.75;;;17.70;100.00
41264;BME280;26998;48.714;9.414;2023-09-18T02:58:36;98401.56;;;17.75;100.00
41264;BME280;26998;48.714;9.414;2023-09-18T03:01:03;98409.88;;;17.68;100.00
41264;BME280;26998;48.714;9.414;2023-09-18T03:03:29;98402.06;;;17.72;100.00
41264;BME280;26998;48.714;9.414;2023-09-18T03:06:03;98413.38;;;17.69;100.00
41264;BME280;26998;48.714;9.414;2023-09-18T03:08:30;98394.25;;;17.75;100.00
41264;BME280;26998;48.714;9.414;2023-09-18T03:10:57;98381.22;;;17.67;100.00
41264;BME280;26998;48.714;9.414;2023-09-18T03:13:29;98386.53;;;17.57;100.00
41264;BME280;26998;48.714;9.414;2023-09-18T03:15:56;98388.47;;;17.62;100.00
41264;BME280;26998;48.714;9.414;2023-09-18T03:18:23;98416.09;;;17.69;100.00
41264;BME280;26998;48.714;9.414;2023-09-18T03:20:49;98389.78;;;17.59;100.00
41264;BME280;26998;48.714;9.414;2023-09-18T03:23:16;98363.91;;;17.63;100.00
41264;BME280;26998;48.714;9.414;2023-09-18T03:25:43;98361.88;;;17.53;100.00
41264;BME280;26998;48.714;9.414;2023-09-18T03:28:16;98370.63;;;17.61;100.00
41264;BME280;26998;48.714;9.414;2023-09-18T03:30:43;98354.28;;;17.50;100.00
41264;BME280;26998;48.714;9.414;2023-09-18T03:33:09;98351.56;;;17.45;100.00
41264;BME280;26998;48.714;9.414;2023-09-18T03:35:48;98327.41;;;17.34;100.00
41264;BME280;26998;48.714;9.414;2023-09-18T03:38:15;98298.03;;;17.42;100.00
41264;BME280;26998;48.714;9.414;2023-09-18T03:40:42;98300.47;;;17.44;100.00
41264;BME280;26998;48.714;9.414;2023-09-18T03:43:09;98302.78;;;17.57;100.00
41264;BME280;26998;48.714;9.414;2023-09-18T03:45:36;98305.72;;;17.55;100.00
41264;BME280;26998;48.714;9.414;2023-09-18T03:48:03;98314.19;;;17.64;100.00
41264;BME280;26998;48.714;9.414;2023-09-18T03:50:29;98313.81;;;17.55;100.00
41264;BME280;26998;48.714;9.414;2023-09-18T03:52:56;98330.31;;;17.54;100.00
41264;BME280;26998;48.714;9.414;2023-09-18T03:55:22;98349.75;;;17.56;100.00
41264;BME280;26998;48.714;9.414;2023-09-18T03:57:48;98380.28;;;17.57;100.00
41264;BME280;26998;48.714;9.414;2023-09-18T04:00:15;98403.94;;;17.66;100.00
41264;BME280;26998;48.714;9.414;2023-09-18T04:02:41;98417.22;;;17.73;100.00
41264;BME280;26998;48.714;9.414;2023-09-18T04:05:11;98451.88;;;17.76;100.00
41264;BME280;26998;48.714;9.414;2023-09-18T04:07:37;98488.44;;;17.84;100.00
41264;BME280;26998;48.714;9.414;2023-09-18T04:10:04;98505.78;;;17.88;100.00
41264;BME280;26998;48.714;9.414;2023-09-18T04:12:30;98496.88;;;17.87;100.00
41264;BME280;26998;48.714;9.414;2023-09-18T04:14:57;98496.31;;;17.85;100.00
41264;BME280;26998;48.714;9.414;2023-09-18T04:17:23;98483.91;;;17.89;100.00
41264;BME280;26998;48.714;9.414;2023-09-18T04:19:50;98495.47;;;17.85;100.00
41264;BME280;26998;48.714;9.414;2023-09-18T04:22:16;98531.56;;;17.95;100.00
41264;BME280;26998;48.714;9.414;2023-09-18T04:24:43;98552.41;;;18.00;100.00
41264;BME280;26998;48.714;9.414;2023-09-18T04:27:09;98572.44;;;17.99;100.00
41264;BME280;26998;48.714;9.414;2023-09-18T04:29:35;98561.31;;;17.95;100.00
41264;BME280;26998;48.714;9.414;2023-09-18T04:32:03;98544.00;;;17.96;100.00
41264;BME280;26998;48.714;9.414;2023-09-18T04:34:30;98552.94;;;17.97;100.00
41264;BME280;26998;48.714;9.414;2023-09-18T04:36:56;98582.97;;;18.00;100.00
41264;BME280;26998;48.714;9.414;2023-09-18T04:39:23;98603.78;;;18.00;100.00
41264;BME280;26998;48.714;9.414;2023-09-18T04:41:49;98603.25;;;17.98;100.00
41264;BME280;26998;48.714;9.414;2023-09-18T04:44:15;98625.38;;;17.95;100.00
41264;BME280;26998;48.714;9.414;2023-09-18T04:46:42;98616.50;;;17.99;100.00
41264;BME280;26998;48.714;9.414;2023-09-18T04:49:09;98621.41;;;18.03;100.00
41264;BME280;26998;48.714;9.414;2023-09-18T04:51:35;98628.44;;;18.04;100.00
41264;BME280;26998;48.714;9.414;2023-09-18T04:54:02;98621.69;;;18.01;100.00
41264;BME280;26998;48.714;9.414;2023-09-18T04:56:31;98626.00;;;18.02;100.00
41264;BME280;26998;48.714;9.414;2023-09-18T04:58:58;98630.03;;;17.99;100.00
41264;BME280;26998;48.714;9.414;2023-09-18T05:01:24;98628.81;;;17.90;100.00
41264;BME280;26998;48.714;9.414;2023-09-18T05:03:52;98595.13;;;17.76;100.00
41264;BME280;26998;48.714;9.414;2023-09-18T05:06:19;98563.53;;;17.60;100.00
41264;BME280;26998;48.714;9.414;2023-09-18T05:08:59;98539.88;;;17.67;100.00
41264;BME280;26998;48.714;9.414;2023-09-18T05:11:42;98565.38;;;17.76;100.00
41264;BME280;26998;48.714;9.414;2023-09-18T05:14:23;98584.53;;;17.74;100.00
41264;BME280;26998;48.714;9.414;2023-09-18T05:16:54;98588.16;;;17.80;100.00
41264;BME280;26998;48.714;9.414;2023-09-18T05:19:36;98591.44;;;17.82;100.00
41264;BME280;26998;48.714;9.414;2023-09-18T05:22:13;98603.88;;;17.83;100.00
41264;BME280;26998;48.714;9.414;2023-09-18T05:24:40;98615.75;;;17.82;100.00
41264;BME280;26998;48.714;9.414;2023-09-18T05:27:21;98636.88;;;17.85;100.00
41264;BME280;26998;48.714;9.414;2023-09-18T05:30:02;98632.03;;;17.87;100.00
41264;BME280;26998;48.714;9.414;2023-09-18T05:32:29;98655.31;;;17.88;100.00
41264;BME280;26998;48.714;9.414;2023-09-18T05:34:56;98659.97;;;17.93;100.00
41264;BME280;26998;48.714;9.414;2023-09-18T05:37:22;98680.78;;;17.92;100.00
41264;BME280;26998;48.714;9.414;2023-09-18T05:39:49;98680.50;;;17.94;100.00
41264;BME280;26998;48.714;9.414;2023-09-18T05:42:16;98694.38;;;17.97;100.00
41264;BME280;26998;48.714;9.414;2023-09-18T05:44:56;98716.31;;;18.01;100.00
41264;BME280;26998;48.714;9.414;2023-09-18T05:47:33;98707.22;;;18.07;100.00
41264;BME280;26998;48.714;9.414;2023-09-18T05:50:03;98724.56;;;18.11;100.00
41264;BME280;26998;48.714;9.414;2023-09-18T05:52:30;98713.63;;;18.23;100.00
41264;BME280;26998;48.714;9.414;2023-09-18T05:54:56;98726.66;;;18.26;100.00
41264;BME280;26998;48.714;9.414;2023-09-18T05:57:22;98721.25;;;18.26;100.00
41264;BME280;26998;48.714;9.414;2023-09-18T05:59:49;98748.28;;;18.26;100.00
41264;BME280;26998;48.714;9.414;2023-09-18T06:02:24;98719.03;;;18.23;100.00
41264;BME280;26998;48.714;9.414;2023-09-18T06:04:55;98699.59;;;18.26;100.00
41264;BME280;26998;48.714;9.414;2023-09-18T06:07:22;98676.06;;;18.27;100.00
41264;BME280;26998;48.714;9.414;2023-09-18T06:09:50;98685.06;;;18.32;100.00
41264;BME280;26998;48.714;9.414;2023-09-18T06:12:17;98692.91;;;18.34;100.00
41264;BME280;26998;48.714;9.414;2023-09-18T06:14:43;98684.50;;;18.30;100.00
41264;BME280;26998;48.714;9.414;2023-09-18T06:17:10;98671.53;;;18.32;100.00
41264;BME280;26998;48.714;9.414;2023-09-18T06:19:36;98672.91;;;18.35;100.00
41264;BME280;26998;48.714;9.414;2023-09-18T06:22:03;98674.28;;;18.37;100.00
41264;BME280;26998;48.714;9.414;2023-09-18T06:24:29;98666.97;;;18.38;100.00
41264;BME280;26998;48.714;9.414;2023-09-18T06:26:56;98642.91;;;18.36;100.00
41264;BME280;26998;48.714;9.414;2023-09-18T06:29:24;98643.50;;;18.43;100.00
41264;BME280;26998;48.714;9.414;2023-09-18T06:31:50;98638.75;;;18.51;100.00
41264;BME280;26998;48.714;9.414;2023-09-18T06:34:17;98653.38;;;18.55;100.00
41264;BME280;26998;48.714;9.414;2023-09-18T06:36:46;98650.88;;;18.48;100.00
41264;BME280;26998;48.714;9.414;2023-09-18T06:39:13;98653.91;;;18.52;100.00
41264;BME280;26998;48.714;9.414;2023-09-18T06:41:41;98651.28;;;18.62;100.00
41264;BME280;26998;48.714;9.414;2023-09-18T06:44:09;98671.34;;;18.66;100.00
41264;BME280;26998;48.714;9.414;2023-09-18T06:46:36;98653.44;;;18.60;100.00
41264;BME280;26998;48.714;9.414;2023-09-18T06:49:03;98647.97;;;18.55;100.00
41264;BME280;26998;48.714;9.414;2023-09-18T06:51:29;98627.78;;;18.40;100.00
41264;BME280;26998;48.714;9.414;2023-09-18T06:54:02;98622.13;;;18.42;100.00
41264;BME280;26998;48.714;9.414;2023-09-18T06:56:28;98619.22;;;18.49;100.00
41264;BME280;26998;48.714;9.414;2023-09-18T06:58:55;98633.16;;;18.62;100.00
41264;BME280;26998;48.714;9.414;2023-09-18T07:01:22;98632.69;;;18.70;100.00
41264;BME280;26998;48.714;9.414;2023-09-18T07:03:48;98620.88;;;18.77;100.00
41264;BME280;26998;48.714;9.414;2023-09-18T07:06:15;98662.19;;;18.94;100.00
41264;BME280;26998;48.714;9.414;2023-09-18T07:08:43;98668.25;;;19.06;100.00
41264;BME280;26998;48.714;9.414;2023-09-18T07:11:09;98672.72;;;19.23;100.00
41264;BME280;26998;48.714;9.414;2023-09-18T07:13:36;98676.84;;;19.30;100.00
41264;BME280;26998;48.714;9.414;2023-09-18T07:16:02;98676.91;;;19.41;100.00
41264;BME280;26998;48.714;9.414;2023-09-18T07:18:29;98683.88;;;19.64;100.00
41264;BME280;26998;48.714;9.414;2023-09-18T07:20:55;98721.66;;;19.75;100.00
41264;BME280;26998;48.714;9.414;2023-09-18T07:23:22;98786.34;;;19.99;100.00
41264;BME280;26998;48.714;9.414;2023-09-18T07:25:48;98792.06;;;20.02;100.00
41264;BME280;26998;48.714;9.414;2023-09-18T07:28:15;98797.84;;;20.11;100.00
41264;BME280;26998;48.714;9.414;2023-09-18T07:30:41;98784.84;;;20.18;100.00
41264;BME280;26998;48.714;9.414;2023-09-18T07:33:08;98835.34;;;20.24;100.00
41264;BME280;26998;48.714;9.414;2023-09-18T07:35:34;98838.69;;;20.32;100.00
41264;BME280;26998;48.714;9.414;2023-09-18T07:38:01;98996.84;;;20.27;100.00
41264;BME280;26998;48.714;9.414;2023-09-18T07:40:28;98979.19;;;20.24;100.00
41264;BME280;26998;48.714;9.414;2023-09-18T07:42:54;98946.91;;;20.23;100.00
41264;BME280;26998;48.714;9.414;2023-09-18T07:45:22;98888.63;;;20.36;100.00
41264;BME280;26998;48.714;9.414;2023-09-18T07:47:48;98941.75;;;20.26;100.00
41264;BME280;26998;48.714;9.414;2023-09-18T07:50:15;98903.53;;;20.33;100.00
41264;BME280;26998;48.714;9.414;2023-09-18T07:52:45;98841.97;;;20.39;100.00
41264;BME280;26998;48.714;9.414;2023-09-18T07:55:11;98860.69;;;20.40;100.00
41264;BME280;26998;48.714;9.414;2023-09-18T07:57:38;98967.41;;;20.46;100.00
41264;BME280;26998;48.714;9.414;2023-09-18T08:00:05;98934.56;;;20.42;100.00
41264;BME280;26998;48.714;9.414;2023-09-18T08:02:32;98926.19;;;20.49;100.00
41264;BME280;26998;48.714;9.414;2023-09-18T08:04:58;98876.13;;;20.72;100.00
41264;BME280;26998;48.714;9.414;2023-09-18T08:07:25;98860.72;;;20.88;100.00
41264;BME280;26998;48.714;9.414;2023-09-18T08:09:54;98814.56;;;20.98;100.00
41264;BME280;26998;48.714;9.414;2023-09-18T08:12:35;98774.34;;;20.95;100.00
41264;BME280;26998;48.714;9.414;2023-09-18T08:15:03;98764.31;;;21.06;100.00
41264;BME280;26998;48.714;9.414;2023-09-18T08:17:30;98726.84;;;21.23;100.00
41264;BME280;26998;48.714;9.414;2023-09-18T08:20:10;98735.00;;;21.18;100.00
41264;BME280;26998;48.714;9.414;2023-09-18T08:22:37;98774.41;;;21.20;100.00
41264;BME280;26998;48.714;9.414;2023-09-18T08:25:05;98727.09;;;21.11;100.00
41264;BME280;26998;48.714;9.414;2023-09-18T08:27:35;98768.44;;;21.18;100.00
41264;BME280;26998;48.714;9.414;2023-09-18T08:30:01;98748.31;;;21.19;100.00
41264;BME280;26998;48.714;9.414;2023-09-18T08:32:42;98751.56;;;21.16;100.00
41264;BME280;26998;48.714;9.414;2023-09-18T08:35:09;98737.44;;;21.19;100.00
41264;BME280;26998;48.714;9.414;2023-09-18T08:37:35;98744.22;;;21.02;100.00
41264;BME280;26998;48.714;9.414;2023-09-18T08:40:02;98787.16;;;21.10;100.00
41264;BME280;26998;48.714;9.414;2023-09-18T08:42:33;98801.50;;;20.85;100.00
41264;BME280;26998;48.714;9.414;2023-09-18T08:45:01;98806.41;;;20.93;100.00
41264;BME280;26998;48.714;9.414;2023-09-18T08:47:29;98821.00;;;20.76;100.00
41264;BME280;26998;48.714;9.414;2023-09-18T08:49:58;98792.69;;;20.57;100.00
41264;BME280;26998;48.714;9.414;2023-09-18T08:52:36;98796.38;;;20.41;100.00
41264;BME280;26998;48.714;9.414;2023-09-18T08:55:07;98795.88;;;20.44;100.00
41264;BME280;26998;48.714;9.414;2023-09-18T08:57:44;98868.53;;;20.32;100.00
41264;BME280;26998;48.714;9.414;2023-09-18T09:00:11;98886.97;;;20.29;100.00
41264;BME280;26998;48.714;9.414;2023-09-18T09:02:38;98861.38;;;20.20;100.00
41264;BME280;26998;48.714;9.414;2023-09-18T09:05:05;98928.06;;;20.11;100.00
41264;BME280;26998;48.714;9.414;2023-09-18T09:07:32;99094.97;;;19.92;100.00
41264;BME280;26998;48.714;9.414;2023-09-18T09:09:59;99079.53;;;19.70;100.00
41264;BME280;26998;48.714;9.414;2023-09-18T09:12:57;99099.00;;;19.28;100.00
41264;BME280;26998;48.714;9.414;2023-09-18T09:15:28;99141.22;;;19.07;100.00
41264;BME280;26998;48.714;9.414;2023-09-18T09:18:06;99160.72;;;19.09;100.00
41264;BME280;26998;48.714;9.414;2023-09-18T09:20:34;99207.44;;;19.00;100.00
41264;BME280;26998;48.714;9.414;2023-09-18T09:23:04;99218.34;;;18.88;100.00
41264;BME280;26998;48.714;9.414;2023-09-18T09:25:32;99286.53;;;18.85;100.00
41264;BME280;26998;48.714;9.414;2023-09-18T09:28:00;99304.06;;;18.94;100.00
41264;BME280;26998;48.714;9.414;2023-09-18T09:30:28;99504.34;;;19.01;100.00
41264;BME280;26998;48.714;9.414;2023-09-18T09:32:58;99634.13;;;19.02;100.00
41264;BME280;26998;48.714;9.414;2023-09-18T09:35:31;99619.66;;;19.08;100.00
41264;BME280;26998;48.714;9.414;2023-09-18T09:38:00;99630.84;;;18.88;100.00
41264;BME280;26998;48.714;9.414;2023-09-18T09:40:30;99618.94;;;18.89;100.00
41264;BME280;26998;48.714;9.414;2023-09-18T09:42:57;99599.03;;;18.96;100.00
41264;BME280;26998;48.714;9.414;2023-09-18T09:45:24;99509.84;;;19.18;100.00
41264;BME280;26998;48.714;9.414;2023-09-18T09:47:53;99328.31;;;18.89;100.00
41264;BME280;26998;48.714;9.414;2023-09-18T09:50:21;99418.03;;;18.81;100.00
41264;BME280;26998;48.714;9.414;2023-09-18T09:52:49;99531.56;;;18.82;100.00
41264;BME280;26998;48.714;9.414;2023-09-18T09:58:03;99524.84;;;18.97;100.00
41264;BME280;26998;48.714;9.414;2023-09-18T10:00:32;99487.16;;;19.07;100.00
41264;BME280;26998;48.714;9.414;2023-09-18T10:03:01;99603.28;;;18.91;100.00
41264;BME280;26998;48.714;9.414;2023-09-18T10:05:45;99682.31;;;18.70;100.00
41264;BME280;26998;48.714;9.414;2023-09-18T10:08:14;99659.16;;;18.74;100.00
41264;BME280;26998;48.714;9.414;2023-09-18T10:10:47;99672.72;;;18.74;100.00
41264;BME280;26998;48.714;9.414;2023-09-18T10:13:36;99649.78;;;18.88;100.00
41264;BME280;26998;48.714;9.414;2023-09-18T10:16:09;99544.63;;;18.85;100.00
41264;BME280;26998;48.714;9.414;2023-09-18T10:19:00;99674.16;;;19.00;100.00
41264;BME280;26998;48.714;9.414;2023-09-18T10:24:22;99484.09;;;18.91;100.00
41264;BME280;26998;48.714;9.414;2023-09-18T10:26:58;99578.06;;;18.79;100.00
41264;BME280;26998;48.714;9.414;2023-09-18T10:29:25;99646.69;;;18.73;100.00
41264;BME280;26998;48.714;9.414;2023-09-18T10:31:52;99647.66;;;18.79;100.00
41264;BME280;26998;48.714;9.414;2023-09-18T10:34:20;99525.19;;;19.00;100.00
41264;BME280;26998;48.714;9.414;2023-09-18T10:36:49;99589.13;;;18.89;100.00
41264;BME280;26998;48.714;9.414;2023-09-18T10:39:16;99563.81;;;18.96;100.00
41264;BME280;26998;48.714;9.414;2023-09-18T10:41:43;99601.16;;;18.82;100.00
41264;BME280;26998;48.714;9.414;2023-09-18T10:44:10;99499.28;;;18.81;100.00
41264;BME280;26998;48.714;9.414;2023-09-18T10:46:37;99491.97;;;18.81;100.00
41264;BME280;26998;48.714;9.414;2023-09-18T10:49:04;99621.03;;;18.87;100.00
41264;BME280;26998;48.714;9.414;2023-09-18T10:51:32;99577.50;;;18.89;100.00
41264;BME280;26998;48.714;9.414;2023-09-18T10:54:01;99543.69;;;18.91;100.00
41264;BME280;26998;48.714;9.414;2023-09-18T10:56:28;99626.34;;;18.82;100.00
41264;BME280;26998;48.714;9.414;2023-09-18T10:59:02;99665.91;;;18.83;100.00
41264;BME280;26998;48.714;9.414;2023-09-18T11:01:31;99730.19;;;18.76;100.00
41264;BME280;26998;48.714;9.414;2023-09-18T11:04:04;99838.94;;;18.73;100.00
41264;BME280;26998;48.714;9.414;2023-09-18T11:09:25;99774.88;;;18.49;100.00
41264;BME280;26998;48.714;9.414;2023-09-18T11:12:03;99822.41;;;18.44;100.00
41264;BME280;26998;48.714;9.414;2023-09-18T11:14:50;99787.22;;;18.44;100.00
41264;BME280;26998;48.714;9.414;2023-09-18T11:17:38;99881.78;;;18.39;100.00
41264;BME280;26998;48.714;9.414;2023-09-18T11:20:23;99942.31;;;18.45;100.00
41264;BME280;26998;48.714;9.414;2023-09-18T11:22:57;99817.50;;;18.53;100.00
41264;BME280;26998;48.714;9.414;2023-09-18T11:25:37;99775.31;;;18.64;100.00
41264;BME280;26998;48.714;9.414;2023-09-18T11:28:08;99803.13;;;18.53;100.00
41264;BME280;26998;48.714;9.414;2023-09-18T11:30:50;99830.19;;;18.53;100.00
41264;BME280;26998;48.714;9.414;2023-09-18T11:33:36;99773.81;;;18.50;100.00
41264;BME280;26998;48.714;9.414;2023-09-18T11:36:14;99835.09;;;18.44;100.00
41264;BME280;26998;48.714;9.414;2023-09-18T11:38:54;99840.38;;;18.39;100.00
41264;BME280;26998;48.714;9.414;2023-09-18T11:41:26;99832.78;;;18.29;100.00
41264;BME280;26998;48.714;9.414;2023-09-18T11:46:49;99775.31;;;18.45;100.00
41264;BME280;26998;48.714;9.414;2023-09-18T11:49:19;99706.00;;;18.44;100.00
41264;BME280;26998;48.714;9.414;2023-09-18T11:51:51;99677.56;;;18.54;100.00
41264;BME280;26998;48.714;9.414;2023-09-18T11:54:19;99650.81;;;18.45;100.00
41264;BME280;26998;48.714;9.414;2023-09-18T11:56:45;99661.09;;;18.55;100.00
41264;BME280;26998;48.714;9.414;2023-09-18T11:59:12;99656.03;;;18.59;100.00
41264;BME280;26998;48.714;9.414;2023-09-18T12:01:43;99680.84;;;18.56;100.00
41264;BME280;26998;48.714;9.414;2023-09-18T12:04:10;99743.13;;;18.56;100.00
41264;BME280;26998;48.714;9.414;2023-09-18T12:06:41;99743.47;;;18.78;100.00
41264;BME280;26998;48.714;9.414;2023-09-18T12:09:08;99689.22;;;18.84;100.00
41264;BME280;26998;48.714;9.414;2023-09-18T12:11:36;99570.97;;;18.78;100.00
41264;BME280;26998;48.714;9.414;2023-09-18T12:14:02;99583.94;;;18.76;100.00
41264;BME280;26998;48.714;9.414;2023-09-18T12:16:38;99547.91;;;18.87;100.00
41264;BME280;26998;48.714;9.414;2023-09-18T12:19:05;99530.25;;;18.97;100.00
41264;BME280;26998;48.714;9.414;2023-09-18T12:21:31;99611.53;;;18.85;100.00
41264;BME280;26998;48.714;9.414;2023-09-18T12:23:58;99583.00;;;19.06;100.00
41264;BME280;26998;48.714;9.414;2023-09-18T12:26:24;99472.84;;;19.35;100.00
41264;BME280;26998;48.714;9.414;2023-09-18T12:28:51;99468.75;;;19.09;100.00
41264;BME280;26998;48.714;9.414;2023-09-18T12:31:17;99548.75;;;19.11;100.00
41264;BME280;26998;48.714;9.414;2023-09-18T12:33:44;99449.16;;;19.30;100.00
41264;BME280;26998;48.714;9.414;2023-09-18T12:36:11;99448.84;;;19.15;100.00
41264;BME280;26998;48.714;9.414;2023-09-18T12:38:37;99449.94;;;19.02;100.00
41264;BME280;26998;48.714;9.414;2023-09-18T12:41:04;99416.56;;;19.13;100.00
41264;BME280;26998;48.714;9.414;2023-09-18T12:43:40;99351.69;;;19.35;100.00
41264;BME280;26998;48.714;9.414;2023-09-18T12:46:07;99347.47;;;19.56;100.00
41264;BME280;26998;48.714;9.414;2023-09-18T12:48:38;99309.28;;;19.92;100.00
41264;BME280;26998;48.714;9.414;2023-09-18T12:51:05;99234.59;;;20.06;100.00
41264;BME280;26998;48.714;9.414;2023-09-18T12:53:32;99157.00;;;20.05;100.00
41264;BME280;26998;48.714;9.414;2023-09-18T12:56:11;99089.44;;;20.30;100.00
41264;BME280;26998;48.714;9.414;2023-09-18T12:58:39;99033.31;;;20.63;100.00
41264;BME280;26998;48.714;9.414;2023-09-18T13:01:26;99015.97;;;20.69;100.00
41264;BME280;26998;48.714;9.414;2023-09-18T13:03:54;98960.38;;;20.82;100.00
41264;BME280;26998;48.714;9.414;2023-09-18T13:06:21;99076.81;;;20.46;100.00
41264;BME280;26998;48.714;9.414;2023-09-18T13:08:49;99070.84;;;20.71;100.00
41264;BME280;26998;48.714;9.414;2023-09-18T13:11:16;98934.75;;;21.15;100.00
41264;BME280;26998;48.714;9.414;2023-09-18T13:13:43;98912.09;;;20.94;100.00